createdAt,value
2022-09-12T00:01:53.471Z,10.40
2022-09-12T00:04:20.521Z,10.40
2022-09-12T00:06:47.474Z,10.40
2022-09-12T00:09:15.315Z,10.40
2022-09-12T00:11:45.226Z,10.40
2022-09-12T00:14:13.448Z,10.40
2022-09-12T00:16:40.702Z,10.40
2022-09-12T00:19:08.690Z,10.40
2022-09-12T00:21:37.485Z,10.40
2022-09-12T00:24:05.026Z,10.40
2022-09-12T00:26:32.678Z,10.40
2022-09-12T00:28:59.597Z,10.30
2022-09-12T00:31:27.870Z,10.30
2022-09-12T00:33:58.826Z,10.30
2022-09-12T00:36:26.681Z,10.30
2022-09-12T00:38:54.771Z,10.30
2022-09-12T00:41:41.891Z,10.40
2022-09-12T00:44:23.942Z,10.30
2022-09-12T00:47:06.090Z,10.30
2022-09-12T00:49:54.850Z,10.30
2022-09-12T00:52:32.875Z,10.30
2022-09-12T00:55:06.008Z,10.30
2022-09-12T00:57:41.535Z,10.30
2022-09-12T01:00:20.788Z,10.20
2022-09-12T01:02:54.324Z,10.20
2022-09-12T01:05:23.450Z,10.20
2022-09-12T01:07:51.796Z,10.20
2022-09-12T01:10:19.644Z,10.20
2022-09-12T01:12:47.660Z,10.20
2022-09-12T01:15:14.755Z,10.20
2022-09-12T01:17:53.644Z,10.20
2022-09-12T01:20:33.176Z,10.20
2022-09-12T01:23:15.052Z,10.20
2022-09-12T01:26:11.363Z,10.20
2022-09-12T01:29:07.619Z,10.20
2022-09-12T01:31:42.534Z,10.20
2022-09-12T01:34:23.095Z,10.20
2022-09-12T01:36:51.504Z,10.20
2022-09-12T01:39:27.958Z,10.20
2022-09-12T01:42:12.884Z,10.20
2022-09-12T01:45:04.527Z,10.10
2022-09-12T01:47:41.761Z,10.10
2022-09-12T01:50:16.559Z,10.10
2022-09-12T01:52:55.791Z,10.10
2022-09-12T01:55:51.704Z,10.10
2022-09-12T01:58:25.219Z,10.20
2022-09-12T02:01:07.988Z,10.20
2022-09-12T02:04:00.416Z,10.10
2022-09-12T02:06:37.530Z,10.10
2022-09-12T02:09:17.025Z,10.10
2022-09-12T02:11:46.344Z,10.10
2022-09-12T02:14:19.297Z,10.10
2022-09-12T02:17:07.192Z,10.10
2022-09-12T02:19:40.488Z,10.10
2022-09-12T02:22:12.097Z,10.10
2022-09-12T02:24:42.390Z,10.10
2022-09-12T02:27:12.315Z,10.10
2022-09-12T02:29:39.055Z,10.10
2022-09-12T02:32:32.817Z,10.10
2022-09-12T02:35:08.738Z,10.10
2022-09-12T02:37:44.551Z,10.20
2022-09-12T02:40:12.361Z,10.10
2022-09-12T02:42:39.313Z,10.10
2022-09-12T02:45:07.251Z,10.10
2022-09-12T02:47:44.068Z,10.10
2022-09-12T02:50:11.234Z,10.00
2022-09-12T02:52:38.895Z,10.00
2022-09-12T02:55:06.834Z,10.00
2022-09-12T02:57:33.760Z,10.00
2022-09-12T03:00:02.107Z,10.10
2022-09-12T03:02:33.112Z,10.00
2022-09-12T03:05:12.731Z,10.00
2022-09-12T03:07:57.596Z,10.00
2022-09-12T03:10:52.782Z,10.00
2022-09-12T03:13:44.585Z,10.00
2022-09-12T03:16:35.298Z,10.00
2022-09-12T03:19:26.362Z,10.00
2022-09-12T03:22:04.547Z,10.00
2022-09-12T03:24:40.282Z,10.00
2022-09-12T03:27:07.137Z,10.00
2022-09-12T03:29:34.699Z,10.00
2022-09-12T03:32:01.703Z,10.00
2022-09-12T03:34:29.067Z,10.00
2022-09-12T03:36:56.556Z,10.00
2022-09-12T03:39:24.634Z,10.00
2022-09-12T03:41:52.289Z,10.00
2022-09-12T03:44:19.668Z,10.00
2022-09-12T03:46:46.730Z,10.00
2022-09-12T03:49:13.730Z,10.00
2022-09-12T03:51:40.713Z,9.90
2022-09-12T03:54:08.363Z,10.00
2022-09-12T03:56:37.325Z,10.00
2022-09-12T03:59:07.766Z,10.00
2022-09-12T04:01:35.067Z,9.90
2022-09-12T04:04:02.239Z,10.00
2022-09-12T04:06:29.824Z,10.00
2022-09-12T04:08:56.892Z,10.00
2022-09-12T04:11:23.958Z,10.00
2022-09-12T04:13:52.286Z,10.00
2022-09-12T04:16:19.619Z,10.00
2022-09-12T04:18:47.001Z,10.00
2022-09-12T04:21:21.840Z,10.00
2022-09-12T04:23:51.711Z,10.00
2022-09-12T04:26:19.876Z,10.00
2022-09-12T04:28:47.824Z,10.00
2022-09-12T04:31:18.201Z,10.00
2022-09-12T04:33:45.767Z,10.00
2022-09-12T04:36:16.985Z,10.00
2022-09-12T04:38:46.355Z,10.00
2022-09-12T04:41:22.161Z,10.00
2022-09-12T04:43:53.887Z,10.00
2022-09-12T04:46:22.624Z,10.10
2022-09-12T04:48:54.625Z,10.10
2022-09-12T04:51:32.750Z,10.00
2022-09-12T04:54:02.180Z,10.10
2022-09-12T04:56:30.002Z,10.10
2022-09-12T04:58:59.606Z,10.10
2022-09-12T05:01:28.216Z,10.10
2022-09-12T05:03:56.340Z,10.10
2022-09-12T05:06:29.172Z,10.10
2022-09-12T05:08:58.632Z,10.10
2022-09-12T05:11:41.311Z,10.10
2022-09-12T05:14:15.052Z,10.10
2022-09-12T05:16:44.213Z,10.10
2022-09-12T05:19:12.982Z,10.20
2022-09-12T05:21:40.476Z,10.20
2022-09-12T05:24:07.555Z,10.30
2022-09-12T05:26:34.478Z,10.40
2022-09-12T05:29:01.407Z,10.30
2022-09-12T05:31:28.889Z,10.30
2022-09-12T05:33:56.631Z,10.30
2022-09-12T05:36:26.631Z,10.40
2022-09-12T05:38:54.056Z,10.40
2022-09-12T05:41:25.241Z,10.40
2022-09-12T05:44:00.125Z,10.40
2022-09-12T05:46:30.175Z,10.30
2022-09-12T05:48:58.376Z,10.40
2022-09-12T05:51:28.182Z,10.30
2022-09-12T05:54:00.099Z,10.40
2022-09-12T05:56:29.175Z,10.40
2022-09-12T05:59:02.579Z,10.40
2022-09-12T06:01:31.611Z,10.40
2022-09-12T06:04:01.012Z,10.50
2022-09-12T06:06:29.909Z,10.50
2022-09-12T06:08:59.865Z,10.50
2022-09-12T06:11:28.363Z,10.50
2022-09-12T06:13:57.496Z,10.60
2022-09-12T06:16:29.756Z,10.60
2022-09-12T06:18:59.190Z,10.50
2022-09-12T06:21:27.059Z,10.50
2022-09-12T06:24:01.106Z,10.50
2022-09-12T06:26:29.335Z,10.50
2022-09-12T06:28:57.933Z,10.50
2022-09-12T06:31:27.998Z,10.50
2022-09-12T06:33:56.260Z,10.50
2022-09-12T06:36:28.927Z,10.60
2022-09-12T06:38:58.033Z,10.60
2022-09-12T06:41:25.839Z,10.60
2022-09-12T06:43:53.682Z,10.70
2022-09-12T06:46:21.214Z,10.60
2022-09-12T06:48:48.664Z,10.60
2022-09-12T06:51:18.083Z,10.70
2022-09-12T06:53:46.423Z,10.70
2022-09-12T06:56:16.857Z,10.80
2022-09-12T06:58:44.221Z,10.80
2022-09-12T07:01:17.407Z,10.80
2022-09-12T07:03:49.027Z,10.80
2022-09-12T07:06:18.355Z,10.70
2022-09-12T07:08:45.969Z,10.80
2022-09-12T07:11:17.802Z,10.80
2022-09-12T07:13:47.588Z,10.80
2022-09-12T07:16:19.177Z,10.90
2022-09-12T07:18:51.724Z,10.90
2022-09-12T07:21:19.117Z,10.90
2022-09-12T07:23:46.280Z,10.90
2022-09-12T07:26:15.083Z,10.90
2022-09-12T07:28:42.898Z,11.00
2022-09-12T07:31:16.191Z,11.00
2022-09-12T07:33:44.134Z,11.00
2022-09-12T07:36:14.098Z,11.10
2022-09-12T07:38:41.209Z,11.10
2022-09-12T07:41:12.823Z,11.00
2022-09-12T07:43:39.957Z,11.10
2022-09-12T07:46:07.989Z,11.10
2022-09-12T07:48:35.201Z,11.10
2022-09-12T07:51:04.702Z,11.30
2022-09-12T07:53:34.478Z,11.30
2022-09-12T07:56:03.223Z,11.30
2022-09-12T07:58:31.335Z,11.30
2022-09-12T08:01:06.245Z,11.20
2022-09-12T08:03:33.267Z,11.20
2022-09-12T08:06:11.834Z,11.20
2022-09-12T08:08:38.989Z,11.20
2022-09-12T08:11:09.218Z,11.30
2022-09-12T08:13:38.253Z,11.30
2022-09-12T08:16:08.115Z,11.40
2022-09-12T08:18:35.612Z,11.60
2022-09-12T08:21:05.475Z,11.60
2022-09-12T08:23:33.095Z,11.60
2022-09-12T08:26:05.928Z,11.70
2022-09-12T08:28:35.370Z,11.70
2022-09-12T08:31:07.986Z,11.70
2022-09-12T08:33:35.318Z,11.70
2022-09-12T08:36:22.719Z,11.60
2022-09-12T08:38:57.374Z,11.70
2022-09-12T08:41:40.075Z,12.00
2022-09-12T08:44:26.587Z,11.90
2022-09-12T08:49:54.206Z,12.10
2022-09-12T08:52:27.808Z,12.20
2022-09-12T08:54:56.425Z,12.30
2022-09-12T08:57:24.441Z,12.30
2022-09-12T08:59:53.209Z,12.40
2022-09-12T09:04:52.738Z,12.50
2022-09-12T09:07:31.676Z,12.40
2022-09-12T09:10:01.751Z,12.30
2022-09-12T09:12:50.404Z,12.20
2022-09-12T09:16:00.319Z,12.20
2022-09-12T09:18:32.997Z,12.10
2022-09-12T09:21:09.503Z,12.10
2022-09-12T09:23:44.742Z,12.00
2022-09-12T09:26:15.792Z,12.10
2022-09-12T09:28:57.741Z,12.10
2022-09-12T09:31:29.515Z,12.10
2022-09-12T09:33:57.009Z,12.20
2022-09-12T09:36:44.212Z,12.20
2022-09-12T09:39:25.993Z,12.20
2022-09-12T09:42:22.995Z,12.20
2022-09-12T09:44:54.437Z,12.10
2022-09-12T09:47:21.430Z,12.10
2022-09-12T09:49:48.478Z,12.10
2022-09-12T09:52:19.189Z,12.10
2022-09-12T09:54:55.261Z,12.20
2022-09-12T09:57:37.246Z,12.20
2022-09-12T10:00:22.732Z,12.30
2022-09-12T10:03:13.789Z,12.50
2022-09-12T10:05:53.094Z,12.60
2022-09-12T10:08:31.864Z,12.50
2022-09-12T10:11:01.057Z,12.50
2022-09-12T10:13:36.105Z,12.50
2022-09-12T10:16:19.085Z,12.30
2022-09-12T10:18:46.550Z,12.10
2022-09-12T10:21:17.927Z,12.10
2022-09-12T10:23:46.615Z,11.90
2022-09-12T10:26:16.567Z,11.90
2022-09-12T10:28:44.777Z,11.90
2022-09-12T10:31:17.288Z,11.80
2022-09-12T10:33:47.354Z,11.80
2022-09-12T10:36:16.342Z,11.70
2022-09-12T10:39:00.706Z,11.80
2022-09-12T10:41:39.297Z,11.80
2022-09-12T10:44:16.489Z,11.80
2022-09-12T10:46:43.495Z,11.70
2022-09-12T10:49:40.176Z,11.80
2022-09-12T10:52:21.615Z,11.70
2022-09-12T10:54:48.763Z,11.60
2022-09-12T10:57:34.985Z,11.70
2022-09-12T11:00:17.163Z,11.80
2022-09-12T11:03:13.801Z,11.80
2022-09-12T11:05:52.808Z,11.80
2022-09-12T11:09:06.379Z,11.90
2022-09-12T11:11:57.497Z,11.90
2022-09-12T11:14:35.217Z,12.00
2022-09-12T11:17:24.411Z,12.00
2022-09-12T11:20:27.419Z,11.90
2022-09-12T11:23:06.098Z,11.80
2022-09-12T11:25:46.511Z,11.80
2022-09-12T11:28:37.613Z,11.70
2022-09-12T11:31:13.339Z,11.70
2022-09-12T11:33:54.962Z,11.80
2022-09-12T11:36:47.794Z,11.80
2022-09-12T11:39:52.281Z,11.80
2022-09-12T11:42:31.483Z,11.80
2022-09-12T11:45:08.113Z,11.80
2022-09-12T11:47:36.546Z,11.70
2022-09-12T11:50:15.063Z,11.80
2022-09-12T11:52:42.010Z,11.90
2022-09-12T11:55:17.269Z,11.90
2022-09-12T11:57:55.930Z,11.80
2022-09-12T12:00:31.225Z,11.90
2022-09-12T12:03:04.072Z,12.00
2022-09-12T12:05:43.124Z,12.00
2022-09-12T12:08:12.327Z,11.90
2022-09-12T12:10:44.376Z,11.80
2022-09-12T12:13:39.471Z,11.80
2022-09-12T12:16:24.763Z,11.80
2022-09-12T12:19:00.361Z,11.70
2022-09-12T12:21:34.742Z,11.80
2022-09-12T12:24:10.564Z,11.70
2022-09-12T12:26:43.262Z,11.60
2022-09-12T12:29:22.219Z,11.60
2022-09-12T12:32:04.250Z,11.60
2022-09-12T12:34:32.476Z,11.60
2022-09-12T12:37:20.219Z,11.60
2022-09-12T12:39:48.321Z,11.60
2022-09-12T12:42:36.243Z,11.70
2022-09-12T12:45:23.321Z,11.60
2022-09-12T12:47:58.289Z,11.60
2022-09-12T12:50:28.463Z,11.40
2022-09-12T12:53:18.183Z,11.40
2022-09-12T12:55:45.070Z,11.40
2022-09-12T12:58:39.564Z,11.60
2022-09-12T13:01:21.442Z,11.50
2022-09-12T13:03:58.038Z,11.60
2022-09-12T13:06:44.603Z,11.60
2022-09-12T13:09:25.401Z,11.70
2022-09-12T13:12:04.295Z,11.60
2022-09-12T13:14:43.205Z,11.70
2022-09-12T13:17:32.143Z,11.80
2022-09-12T13:20:30.117Z,11.70
2022-09-12T13:22:58.218Z,11.40
2022-09-12T13:25:27.283Z,11.40
2022-09-12T13:28:02.619Z,11.30
2022-09-12T13:30:32.854Z,11.30
2022-09-12T13:33:16.311Z,11.20
2022-09-12T13:36:11.298Z,11.20
2022-09-12T13:38:38.458Z,11.20
2022-09-12T13:41:36.276Z,11.20
2022-09-12T13:44:04.320Z,11.30
2022-09-12T13:46:34.194Z,11.30
2022-09-12T13:49:02.164Z,11.40
2022-09-12T13:51:31.419Z,11.40
2022-09-12T13:54:02.993Z,11.50
2022-09-12T13:56:30.029Z,11.50
2022-09-12T13:58:59.067Z,11.40
2022-09-12T14:01:38.751Z,11.30
2022-09-12T14:04:36.981Z,11.40
2022-09-12T14:07:13.060Z,11.50
2022-09-12T14:09:42.873Z,11.50
2022-09-12T14:12:43.602Z,11.40
2022-09-12T14:15:26.102Z,11.40
2022-09-12T14:17:57.804Z,11.40
2022-09-12T14:20:26.039Z,11.40
2022-09-12T14:22:53.454Z,11.40
2022-09-12T14:25:24.617Z,11.40
2022-09-12T14:27:56.301Z,11.40
2022-09-12T14:30:27.958Z,11.40
2022-09-12T14:33:10.089Z,11.40
2022-09-12T14:35:44.077Z,11.30
2022-09-12T14:38:24.924Z,11.30
2022-09-12T14:40:59.823Z,11.20
2022-09-12T14:43:36.013Z,11.30
2022-09-12T14:46:14.761Z,11.30
2022-09-12T14:48:49.336Z,11.30
2022-09-12T14:51:25.155Z,11.30
2022-09-12T14:53:52.075Z,11.30
2022-09-12T14:56:22.698Z,11.30
2022-09-12T14:58:50.444Z,11.30
2022-09-12T15:01:24.143Z,11.30
2022-09-12T15:03:54.098Z,11.30
2022-09-12T15:06:27.861Z,11.30
2022-09-12T15:08:56.971Z,11.30
2022-09-12T15:11:24.259Z,11.30
2022-09-12T15:13:51.691Z,11.30
2022-09-12T15:16:18.651Z,11.30
2022-09-12T15:18:45.547Z,11.30
2022-09-12T15:21:17.057Z,11.20
2022-09-12T15:23:51.102Z,11.20
2022-09-12T15:26:27.554Z,11.20
2022-09-12T15:28:54.419Z,11.10
2022-09-12T15:31:28.747Z,11.10
2022-09-12T15:33:59.282Z,11.00
2022-09-12T15:36:27.192Z,11.00
2022-09-12T15:38:54.673Z,10.90
2022-09-12T15:41:41.962Z,10.90
2022-09-12T15:44:12.654Z,10.80
2022-09-12T15:46:39.687Z,10.80
2022-09-12T15:49:10.830Z,10.80
2022-09-12T15:51:38.129Z,10.80
2022-09-12T15:54:05.222Z,10.80
2022-09-12T15:56:33.915Z,10.70
2022-09-12T15:59:00.828Z,10.70
2022-09-12T16:01:29.405Z,10.70
2022-09-12T16:03:57.136Z,10.70
2022-09-12T16:06:25.406Z,10.70
2022-09-12T16:08:52.534Z,10.70
2022-09-12T16:11:24.683Z,10.70
2022-09-12T16:13:56.900Z,10.60
2022-09-12T16:16:23.950Z,10.70
2022-09-12T16:18:52.253Z,10.70
2022-09-12T16:21:19.345Z,10.60
2022-09-12T16:23:49.004Z,10.60
2022-09-12T16:26:17.504Z,10.60
2022-09-12T16:28:44.699Z,10.70
2022-09-12T16:31:14.811Z,10.70
2022-09-12T16:33:42.981Z,10.70
2022-09-12T16:36:13.954Z,10.70
2022-09-12T16:38:53.579Z,10.70
2022-09-12T16:41:26.767Z,10.70
2022-09-12T16:43:56.748Z,10.70
2022-09-12T16:46:28.739Z,10.70
2022-09-12T16:48:58.492Z,10.70
2022-09-12T16:51:29.222Z,10.70
2022-09-12T16:54:00.611Z,10.70
2022-09-12T16:56:28.919Z,10.70
2022-09-12T16:58:57.767Z,10.70
2022-09-12T17:01:27.029Z,10.60
2022-09-12T17:03:56.636Z,10.60
2022-09-12T17:06:25.325Z,10.60
2022-09-12T17:08:55.161Z,10.60
2022-09-12T17:11:28.973Z,10.60
2022-09-12T17:14:04.968Z,10.60
2022-09-12T17:16:34.803Z,10.80
2022-09-12T17:19:05.766Z,10.80
2022-09-12T17:21:33.519Z,10.60
2022-09-12T17:24:00.506Z,10.60
2022-09-12T17:26:27.447Z,10.50
2022-09-12T17:28:55.395Z,10.60
2022-09-12T17:31:22.414Z,10.70
2022-09-12T17:33:49.650Z,10.70
2022-09-12T17:36:18.489Z,10.80
2022-09-12T17:38:46.209Z,10.60
2022-09-12T17:41:18.874Z,10.70
2022-09-12T17:43:51.391Z,10.80
2022-09-12T17:46:19.533Z,10.80
2022-09-12T17:48:52.603Z,10.70
2022-09-12T17:51:20.336Z,10.60
2022-09-12T17:53:47.613Z,10.70
2022-09-12T17:56:15.705Z,10.60
2022-09-12T17:58:43.557Z,10.70
2022-09-12T18:01:33.104Z,10.60
2022-09-12T18:04:01.890Z,10.60
2022-09-12T18:06:32.085Z,10.60
2022-09-12T18:09:06.592Z,10.70
2022-09-12T18:11:36.294Z,10.70
2022-09-12T18:14:03.697Z,10.60
2022-09-12T18:16:32.339Z,10.70
2022-09-12T18:19:01.679Z,10.60
2022-09-12T18:21:30.777Z,10.80
2022-09-12T18:23:59.535Z,10.80
2022-09-12T18:26:28.482Z,10.60
2022-09-12T18:28:55.931Z,10.60
2022-09-12T18:31:26.450Z,10.70
2022-09-12T18:33:53.595Z,10.50
2022-09-12T18:36:21.313Z,10.50
2022-09-12T18:38:51.103Z,10.50
2022-09-12T18:41:20.554Z,10.60
2022-09-12T18:43:48.198Z,10.60
2022-09-12T18:46:20.328Z,10.50
2022-09-12T18:48:47.530Z,10.50
2022-09-12T18:51:21.764Z,10.50
2022-09-12T18:54:01.446Z,10.50
2022-09-12T18:56:34.483Z,10.60
2022-09-12T18:59:04.598Z,10.40
2022-09-12T19:01:35.007Z,10.50
2022-09-12T19:04:05.071Z,10.50
2022-09-12T19:06:35.320Z,10.50
2022-09-12T19:09:07.379Z,10.70
2022-09-12T19:11:39.777Z,10.60
2022-09-12T19:14:09.114Z,10.50
2022-09-12T19:16:36.850Z,10.60
2022-09-12T19:19:05.111Z,10.50
2022-09-12T19:21:33.117Z,10.50
2022-09-12T19:24:05.621Z,10.60
2022-09-12T19:26:33.604Z,10.60
2022-09-12T19:29:02.635Z,10.50
2022-09-12T19:31:32.764Z,10.50
2022-09-12T19:34:02.881Z,10.70
2022-09-12T19:36:46.708Z,10.70
2022-09-12T19:39:17.795Z,10.60
2022-09-12T19:41:45.865Z,10.70
2022-09-12T19:44:13.108Z,10.50
2022-09-12T19:46:40.584Z,10.40
2022-09-12T19:49:07.797Z,10.50
2022-09-12T19:51:34.674Z,10.50
2022-09-12T19:54:01.594Z,10.50
2022-09-12T19:56:30.398Z,10.50
2022-09-12T19:58:57.690Z,10.40
2022-09-12T20:01:28.609Z,10.40
2022-09-12T20:03:56.769Z,10.40
2022-09-12T20:06:25.219Z,10.40
2022-09-12T20:08:52.076Z,10.40
2022-09-12T20:11:21.039Z,10.60
2022-09-12T20:13:48.371Z,10.40
2022-09-12T20:16:25.434Z,10.40
2022-09-12T20:18:55.947Z,10.30
2022-09-12T20:21:25.840Z,10.40
2022-09-12T20:23:53.301Z,10.30
2022-09-12T20:26:20.644Z,10.50
2022-09-12T20:28:50.863Z,10.60
2022-09-12T20:31:19.548Z,10.30
2022-09-12T20:33:51.646Z,10.50
2022-09-12T20:36:20.969Z,10.40
2022-09-12T20:38:53.215Z,10.50
2022-09-12T20:41:21.318Z,10.40
2022-09-12T20:43:52.603Z,10.40
2022-09-12T20:46:22.266Z,10.40
2022-09-12T20:48:50.672Z,10.40
2022-09-12T20:51:18.255Z,10.40
2022-09-12T20:53:45.479Z,10.50
2022-09-12T20:56:12.406Z,10.40
2022-09-12T20:58:43.163Z,10.40
2022-09-12T21:01:16.123Z,10.60
2022-09-12T21:03:44.334Z,10.60
2022-09-12T21:06:18.775Z,10.50
2022-09-12T21:08:47.255Z,10.50
2022-09-12T21:11:17.561Z,10.50
2022-09-12T21:13:44.388Z,10.30
2022-09-12T21:16:12.927Z,10.30
2022-09-12T21:18:41.250Z,10.40
2022-09-12T21:21:09.571Z,10.30
2022-09-12T21:23:36.500Z,10.40
2022-09-12T21:26:04.343Z,10.30
2022-09-12T21:28:31.406Z,10.40
2022-09-12T21:30:58.451Z,10.30
2022-09-12T21:33:25.878Z,10.30
2022-09-12T21:35:54.774Z,10.40
2022-09-12T21:38:21.677Z,10.40
2022-09-12T21:40:48.760Z,10.40
2022-09-12T21:43:15.681Z,10.40
2022-09-12T21:45:42.637Z,10.40
2022-09-12T21:48:10.076Z,10.40
2022-09-12T21:50:36.984Z,10.50
2022-09-12T21:53:03.906Z,10.50
2022-09-12T21:55:31.260Z,10.40
2022-09-12T21:57:58.163Z,10.50
2022-09-12T22:00:25.073Z,10.50
2022-09-12T22:02:52.638Z,10.50
2022-09-12T22:05:21.389Z,10.60
2022-09-12T22:07:48.321Z,10.50
2022-09-12T22:10:15.349Z,10.50
2022-09-12T22:12:46.081Z,10.40
2022-09-12T22:15:38.910Z,10.60
2022-09-12T22:18:00.968Z,10.60
2022-09-12T22:20:27.905Z,10.50
2022-09-12T22:23:13.345Z,10.50
2022-09-12T22:25:40.574Z,10.60
2022-09-12T22:28:07.536Z,10.50
2022-09-12T22:30:34.508Z,10.50
2022-09-12T22:33:01.588Z,10.50
2022-09-12T22:35:28.503Z,10.40
2022-09-12T22:37:55.433Z,10.50
2022-09-12T22:40:22.424Z,10.60
2022-09-12T22:42:52.384Z,10.50
2022-09-12T22:45:20.084Z,10.70
2022-09-12T22:47:47.332Z,10.60
2022-09-12T22:50:14.643Z,10.70
2022-09-12T22:52:41.758Z,10.60
2022-09-12T22:55:09.819Z,10.50
2022-09-12T22:57:37.492Z,10.60
2022-09-12T23:00:08.373Z,10.60
2022-09-12T23:02:35.287Z,10.60
2022-09-12T23:05:02.695Z,10.60
2022-09-12T23:07:29.729Z,10.70
2022-09-12T23:09:57.019Z,10.50
2022-09-12T23:12:23.967Z,10.50
2022-09-12T23:14:50.874Z,10.50
2022-09-12T23:17:17.798Z,10.70
2022-09-12T23:19:48.551Z,10.60
2022-09-12T23:22:15.424Z,10.70
2022-09-12T23:24:42.311Z,10.60
2022-09-12T23:27:09.235Z,10.60
2022-09-12T23:29:36.398Z,10.60
2022-09-12T23:32:04.532Z,10.70
2022-09-12T23:34:31.447Z,10.60
2022-09-12T23:36:58.319Z,10.50
2022-09-12T23:39:25.283Z,10.50
2022-09-12T23:41:52.227Z,10.50
2022-09-12T23:44:19.170Z,10.60
2022-09-12T23:46:46.074Z,10.70
2022-09-12T23:49:13.025Z,10.70
2022-09-12T23:51:39.980Z,10.60
2022-09-12T23:54:06.910Z,10.70
2022-09-12T23:56:36.133Z,10.60
2022-09-12T23:59:03.038Z,10.70
